sensor_id;sensor_type;location;lat;lon;timestamp;pressure;altitude;pressure_sealevel;temperature;humidity
80693;BME280;70055;39.436;-77.514;2023-12-04T00:00:13;98506.71;;;9.56;65.78
80693;BME280;70055;39.436;-77.514;2023-12-04T00:02:40;98545.65;;;6.76;79.52
80693;BME280;70055;39.436;-77.514;2023-12-04T00:05:09;98524.98;;;9.13;74.51
80693;BME280;70055;39.436;-77.514;2023-12-04T00:07:37;98541.13;;;10.28;68.92
80693;BME280;70055;39.436;-77.514;2023-12-04T00:10:07;98538.48;;;12.12;63.14
80693;BME280;70055;39.436;-77.514;2023-12-04T00:12:35;98547.02;;;12.23;62.41
80693;BME280;70055;39.436;-77.514;2023-12-04T00:15:04;98531.58;;;12.42;60.50
80693;BME280;70055;39.436;-77.514;2023-12-04T00:17:32;98532.24;;;12.13;61.87
80693;BME280;70055;39.436;-77.514;2023-12-04T00:20:00;98513.44;;;13.22;58.42
80693;BME280;70055;39.436;-77.514;2023-12-04T00:22:28;98512.59;;;13.39;58.09
80693;BME280;70055;39.436;-77.514;2023-12-04T00:24:56;98501.73;;;13.42;57.20
80693;BME280;70055;39.436;-77.514;2023-12-04T00:27:25;98507.87;;;13.14;56.80
80693;BME280;70055;39.436;-77.514;2023-12-04T00:29:53;98491.40;;;13.54;55.84
80693;BME280;70055;39.436;-77.514;2023-12-04T00:32:21;98507.62;;;11.50;59.92
80693;BME280;70055;39.436;-77.514;2023-12-04T00:34:49;98505.27;;;12.99;57.64
80693;BME280;70055;39.436;-77.514;2023-12-04T00:37:17;98504.40;;;12.97;56.78
80693;BME280;70055;39.436;-77.514;2023-12-04T00:39:46;98505.78;;;12.43;58.70
80693;BME280;70055;39.436;-77.514;2023-12-04T00:42:15;98506.91;;;13.04;57.55
80693;BME280;70055;39.436;-77.514;2023-12-04T00:44:44;98494.11;;;13.25;56.65
80693;BME280;70055;39.436;-77.514;2023-12-04T00:47:12;98505.77;;;12.81;57.46
80693;BME280;70055;39.436;-77.514;2023-12-04T00:49:40;98499.67;;;12.97;56.28
80693;BME280;70055;39.436;-77.514;2023-12-04T00:52:08;98494.05;;;13.40;54.50
80693;BME280;70055;39.436;-77.514;2023-12-04T00:54:40;98499.03;;;12.91;54.89
80693;BME280;70055;39.436;-77.514;2023-12-04T00:57:08;98515.77;;;11.78;56.84
80693;BME280;70055;39.436;-77.514;2023-12-04T00:59:37;98504.06;;;13.12;54.65
80693;BME280;70055;39.436;-77.514;2023-12-04T01:02:05;98504.69;;;12.50;54.43
80693;BME280;70055;39.436;-77.514;2023-12-04T01:04:33;98500.86;;;12.23;55.87
80693;BME280;70055;39.436;-77.514;2023-12-04T01:07:02;98500.26;;;13.22;53.43
80693;BME280;70055;39.436;-77.514;2023-12-04T01:09:30;98523.02;;;11.86;56.07
80693;BME280;70055;39.436;-77.514;2023-12-04T01:11:58;98526.74;;;12.58;54.09
80693;BME280;70055;39.436;-77.514;2023-12-04T01:14:26;98531.51;;;12.07;55.35
80693;BME280;70055;39.436;-77.514;2023-12-04T01:16:55;98525.14;;;12.24;53.85
80693;BME280;70055;39.436;-77.514;2023-12-04T01:19:24;98532.88;;;11.53;53.99
80693;BME280;70055;39.436;-77.514;2023-12-04T01:21:53;98528.64;;;11.59;53.60
80693;BME280;70055;39.436;-77.514;2023-12-04T01:24:21;98533.84;;;10.41;58.87
80693;BME280;70055;39.436;-77.514;2023-12-04T01:26:49;98522.30;;;10.55;56.64
80693;BME280;70055;39.436;-77.514;2023-12-04T01:29:17;98519.12;;;11.44;53.38
80693;BME280;70055;39.436;-77.514;2023-12-04T01:31:45;98533.20;;;11.25;55.03
80693;BME280;70055;39.436;-77.514;2023-12-04T01:34:13;98525.52;;;10.03;57.57
80693;BME280;70055;39.436;-77.514;2023-12-04T01:36:41;98516.04;;;10.65;57.57
80693;BME280;70055;39.436;-77.514;2023-12-04T01:39:10;98510.42;;;10.85;56.44
80693;BME280;70055;39.436;-77.514;2023-12-04T01:41:38;98502.03;;;10.91;56.58
80693;BME280;70055;39.436;-77.514;2023-12-04T01:44:06;98506.93;;;10.12;58.54
80693;BME280;70055;39.436;-77.514;2023-12-04T01:46:34;98503.32;;;10.85;57.84
80693;BME280;70055;39.436;-77.514;2023-12-04T01:49:03;98493.33;;;9.80;59.50
80693;BME280;70055;39.436;-77.514;2023-12-04T01:51:32;98489.90;;;10.38;58.94
80693;BME280;70055;39.436;-77.514;2023-12-04T01:54:00;98493.72;;;10.84;56.14
80693;BME280;70055;39.436;-77.514;2023-12-04T01:56:30;98501.82;;;10.34;56.65
80693;BME280;70055;39.436;-77.514;2023-12-04T01:58:59;98512.35;;;9.46;56.53
80693;BME280;70055;39.436;-77.514;2023-12-04T02:01:27;98510.08;;;11.00;54.07
80693;BME280;70055;39.436;-77.514;2023-12-04T02:03:57;98510.95;;;10.61;53.57
80693;BME280;70055;39.436;-77.514;2023-12-04T02:06:25;98511.59;;;11.05;52.87
80693;BME280;70055;39.436;-77.514;2023-12-04T02:08:54;98519.78;;;10.24;54.27
80693;BME280;70055;39.436;-77.514;2023-12-04T02:11:24;98532.68;;;9.39;56.01
80693;BME280;70055;39.436;-77.514;2023-12-04T02:13:52;98538.36;;;10.10;54.43
80693;BME280;70055;39.436;-77.514;2023-12-04T02:16:24;98534.09;;;10.67;53.16
80693;BME280;70055;39.436;-77.514;2023-12-04T02:18:53;98535.76;;;11.05;52.61
80693;BME280;70055;39.436;-77.514;2023-12-04T02:21:22;98546.02;;;10.25;53.06
80693;BME280;70055;39.436;-77.514;2023-12-04T02:23:50;98538.24;;;10.63;52.05
80693;BME280;70055;39.436;-77.514;2023-12-04T02:26:24;98545.14;;;10.43;53.10
80693;BME280;70055;39.436;-77.514;2023-12-04T02:28:59;98535.60;;;10.51;51.98
80693;BME280;70055;39.436;-77.514;2023-12-04T02:31:29;98549.14;;;9.70;54.43
80693;BME280;70055;39.436;-77.514;2023-12-04T02:34:00;98539.68;;;10.05;52.31
80693;BME280;70055;39.436;-77.514;2023-12-04T02:36:29;98544.06;;;9.57;52.59
80693;BME280;70055;39.436;-77.514;2023-12-04T02:38:59;98544.37;;;9.10;54.01
80693;BME280;70055;39.436;-77.514;2023-12-04T02:41:27;98555.24;;;8.13;55.68
80693;BME280;70055;39.436;-77.514;2023-12-04T02:43:55;98553.57;;;8.79;53.44
80693;BME280;70055;39.436;-77.514;2023-12-04T02:46:23;98559.35;;;8.42;55.45
80693;BME280;70055;39.436;-77.514;2023-12-04T02:48:51;98559.35;;;8.93;52.95
80693;BME280;70055;39.436;-77.514;2023-12-04T02:51:19;98548.00;;;9.61;51.38
80693;BME280;70055;39.436;-77.514;2023-12-04T02:53:48;98571.35;;;8.47;55.11
80693;BME280;70055;39.436;-77.514;2023-12-04T02:56:16;98571.17;;;8.98;52.73
80693;BME280;70055;39.436;-77.514;2023-12-04T02:58:44;98565.23;;;9.74;51.30
80693;BME280;70055;39.436;-77.514;2023-12-04T03:01:12;98566.35;;;9.19;50.99
80693;BME280;70055;39.436;-77.514;2023-12-04T03:03:40;98582.72;;;5.57;58.79
80693;BME280;70055;39.436;-77.514;2023-12-04T03:06:09;98582.14;;;7.67;56.05
80693;BME280;70055;39.436;-77.514;2023-12-04T03:08:37;98578.76;;;8.96;52.87
80693;BME280;70055;39.436;-77.514;2023-12-04T03:11:06;98581.74;;;9.29;52.14
80693;BME280;70055;39.436;-77.514;2023-12-04T03:13:34;98583.82;;;9.93;50.75
80693;BME280;70055;39.436;-77.514;2023-12-04T03:16:02;98591.75;;;10.01;50.80
80693;BME280;70055;39.436;-77.514;2023-12-04T03:18:30;98595.75;;;9.76;51.02
80693;BME280;70055;39.436;-77.514;2023-12-04T03:20:58;98603.27;;;8.50;54.21
80693;BME280;70055;39.436;-77.514;2023-12-04T03:23:27;98601.14;;;8.20;55.06
80693;BME280;70055;39.436;-77.514;2023-12-04T03:25:55;98595.91;;;9.82;50.08
80693;BME280;70055;39.436;-77.514;2023-12-04T03:28:24;98598.47;;;9.06;51.55
80693;BME280;70055;39.436;-77.514;2023-12-04T03:30:52;98595.65;;;9.46;49.76
80693;BME280;70055;39.436;-77.514;2023-12-04T03:33:20;98590.81;;;9.49;49.28
80693;BME280;70055;39.436;-77.514;2023-12-04T03:35:48;98595.73;;;10.04;48.28
80693;BME280;70055;39.436;-77.514;2023-12-04T03:38:16;98596.26;;;9.50;47.69
80693;BME280;70055;39.436;-77.514;2023-12-04T03:40:44;98607.99;;;8.56;51.00
80693;BME280;70055;39.436;-77.514;2023-12-04T03:43:12;98612.78;;;7.79;51.98
80693;BME280;70055;39.436;-77.514;2023-12-04T03:45:40;98620.93;;;7.77;51.92
80693;BME280;70055;39.436;-77.514;2023-12-04T03:48:08;98620.71;;;8.05;48.82
80693;BME280;70055;39.436;-77.514;2023-12-04T03:50:37;98619.86;;;8.12;47.57
80693;BME280;70055;39.436;-77.514;2023-12-04T03:53:05;98625.67;;;8.17;47.33
80693;BME280;70055;39.436;-77.514;2023-12-04T03:55:33;98628.35;;;8.13;47.10
80693;BME280;70055;39.436;-77.514;2023-12-04T03:58:02;98646.62;;;8.08;46.37
80693;BME280;70055;39.436;-77.514;2023-12-04T04:00:31;98637.03;;;8.22;46.16
80693;BME280;70055;39.436;-77.514;2023-12-04T04:02:59;98646.83;;;8.12;45.51
80693;BME280;70055;39.436;-77.514;2023-12-04T04:05:28;98646.12;;;9.24;42.62
80693;BME280;70055;39.436;-77.514;2023-12-04T04:07:57;98657.82;;;8.45;43.65
80693;BME280;70055;39.436;-77.514;2023-12-04T04:10:25;98665.30;;;7.17;46.06
80693;BME280;70055;39.436;-77.514;2023-12-04T04:12:54;98655.72;;;7.74;43.83
80693;BME280;70055;39.436;-77.514;2023-12-04T04:15:21;98671.56;;;8.07;43.65
80693;BME280;70055;39.436;-77.514;2023-12-04T04:17:49;98669.76;;;7.58;42.18
80693;BME280;70055;39.436;-77.514;2023-12-04T04:20:17;98674.66;;;8.51;42.31
80693;BME280;70055;39.436;-77.514;2023-12-04T04:22:48;98673.93;;;8.75;39.99
80693;BME280;70055;39.436;-77.514;2023-12-04T04:25:16;98689.81;;;7.38;42.97
80693;BME280;70055;39.436;-77.514;2023-12-04T04:27:45;98697.75;;;9.12;41.10
80693;BME280;70055;39.436;-77.514;2023-12-04T04:30:14;98706.87;;;9.05;39.80
80693;BME280;70055;39.436;-77.514;2023-12-04T04:32:42;98719.13;;;9.25;39.28
80693;BME280;70055;39.436;-77.514;2023-12-04T04:35:10;98719.17;;;8.99;40.10
80693;BME280;70055;39.436;-77.514;2023-12-04T04:37:38;98723.65;;;8.27;40.78
80693;BME280;70055;39.436;-77.514;2023-12-04T04:40:07;98721.01;;;8.45;40.53
80693;BME280;70055;39.436;-77.514;2023-12-04T04:42:35;98718.26;;;8.48;39.46
80693;BME280;70055;39.436;-77.514;2023-12-04T04:45:04;98722.59;;;8.20;39.82
80693;BME280;70055;39.436;-77.514;2023-12-04T04:47:32;98719.86;;;9.18;36.94
80693;BME280;70055;39.436;-77.514;2023-12-04T04:50:01;98717.66;;;9.14;38.38
80693;BME280;70055;39.436;-77.514;2023-12-04T04:52:29;98712.91;;;9.76;37.95
80693;BME280;70055;39.436;-77.514;2023-12-04T04:54:57;98717.42;;;8.80;37.91
80693;BME280;70055;39.436;-77.514;2023-12-04T04:57:25;98716.75;;;9.34;36.36
80693;BME280;70055;39.436;-77.514;2023-12-04T04:59:53;98720.69;;;8.29;38.01
80693;BME280;70055;39.436;-77.514;2023-12-04T05:02:21;98720.40;;;8.93;36.62
80693;BME280;70055;39.436;-77.514;2023-12-04T05:04:49;98710.03;;;8.69;38.09
80693;BME280;70055;39.436;-77.514;2023-12-04T05:07:18;98705.33;;;8.44;37.42
80693;BME280;70055;39.436;-77.514;2023-12-04T05:09:47;98697.34;;;8.65;37.49
80693;BME280;70055;39.436;-77.514;2023-12-04T05:12:15;98686.30;;;9.59;35.78
80693;BME280;70055;39.436;-77.514;2023-12-04T05:14:43;98688.68;;;9.31;36.99
80693;BME280;70055;39.436;-77.514;2023-12-04T05:17:12;98691.20;;;9.13;35.98
80693;BME280;70055;39.436;-77.514;2023-12-04T05:19:41;98691.66;;;8.66;37.83
80693;BME280;70055;39.436;-77.514;2023-12-04T05:22:09;98684.38;;;9.27;36.50
80693;BME280;70055;39.436;-77.514;2023-12-04T05:24:38;98678.86;;;9.36;35.55
80693;BME280;70055;39.436;-77.514;2023-12-04T05:27:06;98680.98;;;8.93;37.34
80693;BME280;70055;39.436;-77.514;2023-12-04T05:29:33;98677.07;;;9.23;37.17
80693;BME280;70055;39.436;-77.514;2023-12-04T05:32:02;98672.03;;;8.15;38.23
80693;BME280;70055;39.436;-77.514;2023-12-04T05:34:30;98674.19;;;7.94;37.65
80693;BME280;70055;39.436;-77.514;2023-12-04T05:36:57;98676.47;;;8.38;37.03
80693;BME280;70055;39.436;-77.514;2023-12-04T05:39:24;98680.39;;;8.63;37.22
80693;BME280;70055;39.436;-77.514;2023-12-04T05:41:52;98685.02;;;8.62;37.57
80693;BME280;70055;39.436;-77.514;2023-12-04T05:44:20;98679.06;;;8.78;36.11
80693;BME280;70055;39.436;-77.514;2023-12-04T05:46:48;98681.29;;;8.24;37.50
80693;BME280;70055;39.436;-77.514;2023-12-04T05:49:15;98683.14;;;7.91;37.47
80693;BME280;70055;39.436;-77.514;2023-12-04T05:51:44;98687.23;;;8.57;36.66
80693;BME280;70055;39.436;-77.514;2023-12-04T05:54:12;98689.46;;;8.28;36.88
80693;BME280;70055;39.436;-77.514;2023-12-04T05:56:40;98689.74;;;8.79;37.10
80693;BME280;70055;39.436;-77.514;2023-12-04T05:59:08;98682.96;;;9.15;35.98
80693;BME280;70055;39.436;-77.514;2023-12-04T06:01:36;98675.59;;;9.04;35.29
80693;BME280;70055;39.436;-77.514;2023-12-04T06:04:04;98675.93;;;8.80;35.03
80693;BME280;70055;39.436;-77.514;2023-12-04T06:06:32;98686.11;;;6.87;38.31
80693;BME280;70055;39.436;-77.514;2023-12-04T06:08:59;98688.41;;;8.86;35.63
80693;BME280;70055;39.436;-77.514;2023-12-04T06:11:27;98689.18;;;7.57;37.26
80693;BME280;70055;39.436;-77.514;2023-12-04T06:13:55;98693.55;;;8.32;36.89
80693;BME280;70055;39.436;-77.514;2023-12-04T06:16:22;98695.82;;;8.51;36.57
80693;BME280;70055;39.436;-77.514;2023-12-04T06:18:50;98699.40;;;6.54;39.21
80693;BME280;70055;39.436;-77.514;2023-12-04T06:21:18;98705.30;;;7.89;38.22
80693;BME280;70055;39.436;-77.514;2023-12-04T06:23:47;98707.93;;;7.20;39.06
80693;BME280;70055;39.436;-77.514;2023-12-04T06:26:15;98700.10;;;7.77;37.15
80693;BME280;70055;39.436;-77.514;2023-12-04T06:28:45;98700.98;;;8.11;37.21
80693;BME280;70055;39.436;-77.514;2023-12-04T06:31:14;98708.55;;;8.21;37.36
80693;BME280;70055;39.436;-77.514;2023-12-04T06:33:43;98717.64;;;8.41;36.30
80693;BME280;70055;39.436;-77.514;2023-12-04T06:36:13;98723.87;;;8.46;36.61
80693;BME280;70055;39.436;-77.514;2023-12-04T06:38:43;98716.97;;;8.10;37.66
80693;BME280;70055;39.436;-77.514;2023-12-04T06:41:14;98720.39;;;7.76;38.36
80693;BME280;70055;39.436;-77.514;2023-12-04T06:43:42;98729.59;;;7.49;39.15
80693;BME280;70055;39.436;-77.514;2023-12-04T06:46:11;98728.78;;;7.46;39.58
80693;BME280;70055;39.436;-77.514;2023-12-04T06:48:44;98725.46;;;7.21;39.99
80693;BME280;70055;39.436;-77.514;2023-12-04T06:51:12;98720.67;;;7.38;39.07
80693;BME280;70055;39.436;-77.514;2023-12-04T06:53:40;98720.39;;;7.36;39.43
80693;BME280;70055;39.436;-77.514;2023-12-04T06:56:09;98726.26;;;7.90;38.61
80693;BME280;70055;39.436;-77.514;2023-12-04T06:58:37;98734.34;;;7.53;39.00
80693;BME280;70055;39.436;-77.514;2023-12-04T07:01:05;98740.19;;;8.19;37.49
80693;BME280;70055;39.436;-77.514;2023-12-04T07:03:33;98747.17;;;7.56;38.73
80693;BME280;70055;39.436;-77.514;2023-12-04T07:06:02;98758.23;;;7.73;38.60
80693;BME280;70055;39.436;-77.514;2023-12-04T07:08:30;98762.13;;;7.66;38.10
80693;BME280;70055;39.436;-77.514;2023-12-04T07:10:58;98764.26;;;7.31;39.46
80693;BME280;70055;39.436;-77.514;2023-12-04T07:13:25;98760.99;;;7.78;38.24
80693;BME280;70055;39.436;-77.514;2023-12-04T07:15:54;98762.62;;;8.37;37.90
80693;BME280;70055;39.436;-77.514;2023-12-04T07:18:22;98760.31;;;8.83;36.17
80693;BME280;70055;39.436;-77.514;2023-12-04T07:20:49;98759.80;;;7.72;38.29
80693;BME280;70055;39.436;-77.514;2023-12-04T07:23:17;98749.99;;;8.28;37.50
80693;BME280;70055;39.436;-77.514;2023-12-04T07:25:45;98746.09;;;7.57;38.54
80693;BME280;70055;39.436;-77.514;2023-12-04T07:28:13;98753.36;;;7.87;39.08
80693;BME280;70055;39.436;-77.514;2023-12-04T07:30:41;98763.64;;;8.17;37.70
80693;BME280;70055;39.436;-77.514;2023-12-04T07:33:09;98771.47;;;6.51;41.28
80693;BME280;70055;39.436;-77.514;2023-12-04T07:35:37;98775.73;;;7.22;39.62
80693;BME280;70055;39.436;-77.514;2023-12-04T07:38:04;98774.45;;;6.91;39.68
80693;BME280;70055;39.436;-77.514;2023-12-04T07:40:32;98784.28;;;7.46;39.38
80693;BME280;70055;39.436;-77.514;2023-12-04T07:42:59;98790.90;;;7.05;39.84
80693;BME280;70055;39.436;-77.514;2023-12-04T07:45:27;98787.54;;;7.04;39.54
80693;BME280;70055;39.436;-77.514;2023-12-04T07:47:55;98800.36;;;6.96;40.67
80693;BME280;70055;39.436;-77.514;2023-12-04T07:50:23;98796.05;;;7.66;38.84
80693;BME280;70055;39.436;-77.514;2023-12-04T07:52:50;98792.57;;;6.12;40.80
80693;BME280;70055;39.436;-77.514;2023-12-04T07:55:18;98782.23;;;7.81;38.94
80693;BME280;70055;39.436;-77.514;2023-12-04T07:57:46;98778.57;;;7.09;39.57
80693;BME280;70055;39.436;-77.514;2023-12-04T08:00:15;98775.37;;;6.90;40.78
80693;BME280;70055;39.436;-77.514;2023-12-04T08:02:44;98782.83;;;6.30;40.74
80693;BME280;70055;39.436;-77.514;2023-12-04T08:05:12;98787.81;;;7.21;40.14
80693;BME280;70055;39.436;-77.514;2023-12-04T08:07:40;98799.55;;;5.56;42.80
80693;BME280;70055;39.436;-77.514;2023-12-04T08:10:09;98785.96;;;6.33;41.31
80693;BME280;70055;39.436;-77.514;2023-12-04T08:12:37;98780.91;;;6.84;39.90
80693;BME280;70055;39.436;-77.514;2023-12-04T08:15:06;98786.99;;;6.55;40.64
80693;BME280;70055;39.436;-77.514;2023-12-04T08:17:34;98798.10;;;6.16;42.62
80693;BME280;70055;39.436;-77.514;2023-12-04T08:20:03;98792.58;;;6.60;41.87
80693;BME280;70055;39.436;-77.514;2023-12-04T08:22:31;98796.38;;;5.83;42.90
80693;BME280;70055;39.436;-77.514;2023-12-04T08:24:59;98797.06;;;6.24;42.35
80693;BME280;70055;39.436;-77.514;2023-12-04T08:27:26;98803.95;;;6.07;42.81
80693;BME280;70055;39.436;-77.514;2023-12-04T08:29:54;98816.06;;;5.57;43.16
80693;BME280;70055;39.436;-77.514;2023-12-04T08:32:23;98825.09;;;5.14;44.14
80693;BME280;70055;39.436;-77.514;2023-12-04T08:34:51;98821.43;;;5.95;43.18
80693;BME280;70055;39.436;-77.514;2023-12-04T08:37:19;98821.81;;;6.26;42.54
80693;BME280;70055;39.436;-77.514;2023-12-04T08:39:47;98822.55;;;5.60;42.75
80693;BME280;70055;39.436;-77.514;2023-12-04T08:42:15;98813.92;;;6.80;40.94
80693;BME280;70055;39.436;-77.514;2023-12-04T08:44:44;98808.69;;;6.81;41.19
80693;BME280;70055;39.436;-77.514;2023-12-04T08:47:12;98808.65;;;6.62;41.02
80693;BME280;70055;39.436;-77.514;2023-12-04T08:49:40;98809.64;;;6.39;41.57
80693;BME280;70055;39.436;-77.514;2023-12-04T08:52:08;98809.13;;;5.78;42.67
80693;BME280;70055;39.436;-77.514;2023-12-04T08:54:38;98805.21;;;5.72;43.36
80693;BME280;70055;39.436;-77.514;2023-12-04T08:57:07;98798.33;;;6.25;42.66
80693;BME280;70055;39.436;-77.514;2023-12-04T08:59:35;98792.55;;;5.46;44.07
80693;BME280;70055;39.436;-77.514;2023-12-04T09:02:03;98797.50;;;4.72;44.72
80693;BME280;70055;39.436;-77.514;2023-12-04T09:04:31;98788.52;;;5.74;42.98
80693;BME280;70055;39.436;-77.514;2023-12-04T09:06:59;98799.20;;;4.68;44.83
80693;BME280;70055;39.436;-77.514;2023-12-04T09:09:28;98795.31;;;4.60;45.10
80693;BME280;70055;39.436;-77.514;2023-12-04T09:11:55;98798.45;;;4.83;44.45
80693;BME280;70055;39.436;-77.514;2023-12-04T09:14:23;98798.67;;;5.27;43.91
80693;BME280;70055;39.436;-77.514;2023-12-04T09:16:51;98799.55;;;5.21;44.50
80693;BME280;70055;39.436;-77.514;2023-12-04T09:19:19;98797.59;;;3.88;46.76
80693;BME280;70055;39.436;-77.514;2023-12-04T09:21:48;98799.61;;;4.50;45.93
80693;BME280;70055;39.436;-77.514;2023-12-04T09:24:16;98797.69;;;3.99;47.26
80693;BME280;70055;39.436;-77.514;2023-12-04T09:26:43;98790.20;;;5.01;45.46
80693;BME280;70055;39.436;-77.514;2023-12-04T09:29:12;98784.86;;;5.15;45.18
80693;BME280;70055;39.436;-77.514;2023-12-04T09:31:39;98786.39;;;5.15;44.99
80693;BME280;70055;39.436;-77.514;2023-12-04T09:34:07;98785.28;;;4.65;46.49
80693;BME280;70055;39.436;-77.514;2023-12-04T09:36:34;98786.80;;;3.25;49.47
80693;BME280;70055;39.436;-77.514;2023-12-04T09:39:02;98789.21;;;4.69;47.36
80693;BME280;70055;39.436;-77.514;2023-12-04T09:41:31;98794.48;;;3.40;49.04
80693;BME280;70055;39.436;-77.514;2023-12-04T09:44:00;98783.18;;;4.12;47.98
80693;BME280;70055;39.436;-77.514;2023-12-04T09:46:28;98779.96;;;5.07;45.05
80693;BME280;70055;39.436;-77.514;2023-12-04T09:48:57;98781.33;;;4.42;46.31
80693;BME280;70055;39.436;-77.514;2023-12-04T09:51:27;98779.95;;;5.19;44.85
80693;BME280;70055;39.436;-77.514;2023-12-04T09:53:57;98789.88;;;1.87;51.21
80693;BME280;70055;39.436;-77.514;2023-12-04T09:56:28;98785.23;;;4.04;47.82
80693;BME280;70055;39.436;-77.514;2023-12-04T09:58:59;98783.16;;;3.94;48.03
80693;BME280;70055;39.436;-77.514;2023-12-04T10:01:28;98782.48;;;3.61;48.50
80693;BME280;70055;39.436;-77.514;2023-12-04T10:03:57;98775.74;;;4.20;47.34
80693;BME280;70055;39.436;-77.514;2023-12-04T10:06:28;98776.25;;;3.86;47.22
80693;BME280;70055;39.436;-77.514;2023-12-04T10:08:56;98782.27;;;1.79;51.43
80693;BME280;70055;39.436;-77.514;2023-12-04T10:11:24;98774.62;;;4.35;46.87
80693;BME280;70055;39.436;-77.514;2023-12-04T10:13:52;98772.16;;;4.26;46.94
80693;BME280;70055;39.436;-77.514;2023-12-04T10:16:36;98774.43;;;4.31;45.69
80693;BME280;70055;39.436;-77.514;2023-12-04T10:19:23;98777.72;;;1.73;51.22
80693;BME280;70055;39.436;-77.514;2023-12-04T10:21:54;98770.86;;;4.30;46.96
80693;BME280;70055;39.436;-77.514;2023-12-04T10:24:31;98767.18;;;4.67;45.33
80693;BME280;70055;39.436;-77.514;2023-12-04T10:27:00;98761.37;;;5.10;44.92
80693;BME280;70055;39.436;-77.514;2023-12-04T10:29:30;98763.54;;;4.82;45.14
80693;BME280;70055;39.436;-77.514;2023-12-04T10:32:07;98764.33;;;4.44;45.19
80693;BME280;70055;39.436;-77.514;2023-12-04T10:34:36;98775.42;;;2.90;48.34
80693;BME280;70055;39.436;-77.514;2023-12-04T10:37:05;98773.12;;;4.81;44.57
80693;BME280;70055;39.436;-77.514;2023-12-04T10:39:46;98781.33;;;4.74;44.91
80693;BME280;70055;39.436;-77.514;2023-12-04T10:42:30;98789.13;;;3.10;48.33
80693;BME280;70055;39.436;-77.514;2023-12-04T10:44:59;98792.55;;;3.29;47.92
80693;BME280;70055;39.436;-77.514;2023-12-04T10:47:30;98792.35;;;4.83;45.06
80693;BME280;70055;39.436;-77.514;2023-12-04T10:49:58;98801.13;;;4.88;44.43
80693;BME280;70055;39.436;-77.514;2023-12-04T10:52:28;98806.87;;;4.62;43.57
80693;BME280;70055;39.436;-77.514;2023-12-04T10:54:56;98814.37;;;5.14;43.96
80693;BME280;70055;39.436;-77.514;2023-12-04T10:57:26;98822.70;;;5.19;42.67
80693;BME280;70055;39.436;-77.514;2023-12-04T10:59:57;98835.08;;;5.13;42.82
80693;BME280;70055;39.436;-77.514;2023-12-04T11:02:26;98828.18;;;5.86;41.36
80693;BME280;70055;39.436;-77.514;2023-12-04T11:05:08;98823.41;;;6.21;40.91
80693;BME280;70055;39.436;-77.514;2023-12-04T11:07:37;98836.93;;;5.01;42.95
80693;BME280;70055;39.436;-77.514;2023-12-04T11:10:06;98842.99;;;4.95;42.98
80693;BME280;70055;39.436;-77.514;2023-12-04T11:12:35;98837.81;;;5.41;42.16
80693;BME280;70055;39.436;-77.514;2023-12-04T11:15:04;98836.05;;;6.09;41.14
80693;BME280;70055;39.436;-77.514;2023-12-04T11:17:35;98842.49;;;4.28;43.85
80693;BME280;70055;39.436;-77.514;2023-12-04T11:20:09;98847.65;;;4.92;43.15
80693;BME280;70055;39.436;-77.514;2023-12-04T11:22:38;98848.54;;;4.93;43.51
80693;BME280;70055;39.436;-77.514;2023-12-04T11:25:07;98851.78;;;4.93;43.79
80693;BME280;70055;39.436;-77.514;2023-12-04T11:27:36;98857.71;;;4.93;44.08
80693;BME280;70055;39.436;-77.514;2023-12-04T11:30:07;98863.36;;;4.44;44.64
80693;BME280;70055;39.436;-77.514;2023-12-04T11:32:44;98866.24;;;5.17;43.86
80693;BME280;70055;39.436;-77.514;2023-12-04T11:35:15;98864.33;;;5.03;42.68
80693;BME280;70055;39.436;-77.514;2023-12-04T11:37:44;98867.04;;;3.74;45.59
80693;BME280;70055;39.436;-77.514;2023-12-04T11:40:13;98865.89;;;4.15;45.10
80693;BME280;70055;39.436;-77.514;2023-12-04T11:42:42;98873.30;;;2.71;47.39
80693;BME280;70055;39.436;-77.514;2023-12-04T11:45:15;98875.21;;;3.87;45.22
80693;BME280;70055;39.436;-77.514;2023-12-04T11:47:55;98875.68;;;4.83;43.60
80693;BME280;70055;39.436;-77.514;2023-12-04T11:50:24;98872.89;;;4.96;43.64
80693;BME280;70055;39.436;-77.514;2023-12-04T11:52:53;98875.20;;;4.28;44.48
80693;BME280;70055;39.436;-77.514;2023-12-04T11:55:22;98879.43;;;3.86;45.14
80693;BME280;70055;39.436;-77.514;2023-12-04T11:57:53;98875.84;;;3.59;46.26
80693;BME280;70055;39.436;-77.514;2023-12-04T12:00:23;98879.05;;;3.94;45.57
80693;BME280;70055;39.436;-77.514;2023-12-04T12:03:07;98876.48;;;4.00;45.46
80693;BME280;70055;39.436;-77.514;2023-12-04T12:05:36;98881.96;;;2.46;47.68
80693;BME280;70055;39.436;-77.514;2023-12-04T12:08:05;98876.75;;;3.02;47.10
80693;BME280;70055;39.436;-77.514;2023-12-04T12:10:34;98865.67;;;2.59;47.86
80693;BME280;70055;39.436;-77.514;2023-12-04T12:13:03;98861.70;;;2.53;47.92
80693;BME280;70055;39.436;-77.514;2023-12-04T12:15:33;98862.82;;;3.64;46.13
80693;BME280;70055;39.436;-77.514;2023-12-04T12:18:01;98872.23;;;2.95;47.28
80693;BME280;70055;39.436;-77.514;2023-12-04T12:20:29;98877.22;;;3.23;46.90
80693;BME280;70055;39.436;-77.514;2023-12-04T12:22:57;98878.61;;;3.23;47.17
80693;BME280;70055;39.436;-77.514;2023-12-04T12:25:25;98877.08;;;3.82;45.84
80693;BME280;70055;39.436;-77.514;2023-12-04T12:27:53;98882.37;;;3.78;46.17
80693;BME280;70055;39.436;-77.514;2023-12-04T12:30:21;98883.92;;;4.60;45.39
80693;BME280;70055;39.436;-77.514;2023-12-04T12:32:51;98883.53;;;4.29;45.81
80693;BME280;70055;39.436;-77.514;2023-12-04T12:35:19;98877.59;;;4.41;44.71
80693;BME280;70055;39.436;-77.514;2023-12-04T12:37:47;98872.73;;;3.94;45.94
80693;BME280;70055;39.436;-77.514;2023-12-04T12:40:15;98869.30;;;4.55;44.50
80693;BME280;70055;39.436;-77.514;2023-12-04T12:42:43;98878.02;;;4.49;43.76
80693;BME280;70055;39.436;-77.514;2023-12-04T12:45:12;98880.61;;;3.73;45.65
80693;BME280;70055;39.436;-77.514;2023-12-04T12:47:42;98884.37;;;3.92;45.89
80693;BME280;70055;39.436;-77.514;2023-12-04T12:50:10;98889.27;;;4.88;44.64
80693;BME280;70055;39.436;-77.514;2023-12-04T12:52:38;98893.89;;;4.27;44.69
80693;BME280;70055;39.436;-77.514;2023-12-04T12:55:08;98896.70;;;5.02;43.70